KLRO/LRO METAR and TAF weather

Enter ICAO airport designator
Station Type Date Time Source
KLRO METAR 2019/08/24 18:15 UTC NOAA

KLRO 241815Z AUTO 00000KT 7SM BKN030 BKN038 30/25 A3001 RMK AO2


Station Type Date Time Source
KLRO Decoded METAR 2019/08/24 18:15 UTC NOAA

Station name not available
Aug 24, 2019 - 02:15 PM EDT / 2019.08.24 1815 UTC
Wind: Calm:0
Visibility: 7 mile(s):0
Sky conditions: mostly cloudy
Temperature: 86 F (30 C)
Heat index: 96.8 F (36.0 C):1
Dew Point: 77 F (25 C)
Relative Humidity: 74%
Pressure (altimeter): 30.01 in. Hg (1016 hPa)
ob: KLRO 241815Z AUTO 00000KT 7SM BKN030 BKN038 30/25 A3001 RMK AO2
cycle: 18

Station Type Date Time Source
KLRO TAF UTC NOAA

Error!

Example: see airport list